sensor_id;sensor_type;location;lat;lon;timestamp;P1;durP1;ratioP1;P2;durP2;ratioP2
67981;SDS011;64109;52.148;4.466;2023-01-29T00:00:37;8.75;;;3.03;;
67981;SDS011;64109;52.148;4.466;2023-01-29T00:03:03;7.40;;;2.88;;
67981;SDS011;64109;52.148;4.466;2023-01-29T00:05:29;5.32;;;2.92;;
67981;SDS011;64109;52.148;4.466;2023-01-29T00:07:56;3.78;;;2.58;;
67981;SDS011;64109;52.148;4.466;2023-01-29T00:10:23;5.13;;;2.42;;
67981;SDS011;64109;52.148;4.466;2023-01-29T00:12:49;8.90;;;3.00;;
67981;SDS011;64109;52.148;4.466;2023-01-29T00:15:16;4.28;;;2.78;;
67981;SDS011;64109;52.148;4.466;2023-01-29T00:17:42;7.15;;;2.58;;
67981;SDS011;64109;52.148;4.466;2023-01-29T00:20:09;7.75;;;2.80;;
67981;SDS011;64109;52.148;4.466;2023-01-29T00:22:35;4.15;;;3.72;;
67981;SDS011;64109;52.148;4.466;2023-01-29T00:25:01;5.60;;;2.70;;
67981;SDS011;64109;52.148;4.466;2023-01-29T00:27:27;6.78;;;3.85;;
67981;SDS011;64109;52.148;4.466;2023-01-29T00:29:53;5.53;;;3.42;;
67981;SDS011;64109;52.148;4.466;2023-01-29T00:32:36;3.75;;;2.45;;
67981;SDS011;64109;52.148;4.466;2023-01-29T00:35:02;8.15;;;2.45;;
67981;SDS011;64109;52.148;4.466;2023-01-29T00:37:28;4.43;;;2.20;;
67981;SDS011;64109;52.148;4.466;2023-01-29T00:39:55;3.90;;;2.38;;
67981;SDS011;64109;52.148;4.466;2023-01-29T00:42:21;4.40;;;2.33;;
67981;SDS011;64109;52.148;4.466;2023-01-29T00:45:05;4.82;;;2.63;;
67981;SDS011;64109;52.148;4.466;2023-01-29T00:47:31;8.52;;;2.65;;
67981;SDS011;64109;52.148;4.466;2023-01-29T00:49:58;6.35;;;2.30;;
67981;SDS011;64109;52.148;4.466;2023-01-29T00:52:24;4.82;;;3.08;;
67981;SDS011;64109;52.148;4.466;2023-01-29T00:54:51;4.15;;;3.53;;
67981;SDS011;64109;52.148;4.466;2023-01-29T00:57:17;5.57;;;2.25;;
67981;SDS011;64109;52.148;4.466;2023-01-29T00:59:43;4.20;;;2.38;;
67981;SDS011;64109;52.148;4.466;2023-01-29T01:02:09;4.93;;;2.40;;
67981;SDS011;64109;52.148;4.466;2023-01-29T01:04:54;4.10;;;2.05;;
67981;SDS011;64109;52.148;4.466;2023-01-29T01:07:20;4.95;;;2.40;;
67981;SDS011;64109;52.148;4.466;2023-01-29T01:09:46;4.30;;;2.15;;
67981;SDS011;64109;52.148;4.466;2023-01-29T01:12:31;2.90;;;2.22;;
67981;SDS011;64109;52.148;4.466;2023-01-29T01:14:57;6.78;;;2.30;;
67981;SDS011;64109;52.148;4.466;2023-01-29T01:17:23;3.33;;;1.90;;
67981;SDS011;64109;52.148;4.466;2023-01-29T01:19:49;3.38;;;2.20;;
67981;SDS011;64109;52.148;4.466;2023-01-29T01:22:15;4.63;;;2.13;;
67981;SDS011;64109;52.148;4.466;2023-01-29T01:24:41;4.57;;;2.42;;
67981;SDS011;64109;52.148;4.466;2023-01-29T01:27:07;5.72;;;2.22;;
67981;SDS011;64109;52.148;4.466;2023-01-29T01:29:33;3.97;;;2.20;;
67981;SDS011;64109;52.148;4.466;2023-01-29T01:31:59;3.90;;;2.35;;
67981;SDS011;64109;52.148;4.466;2023-01-29T01:34:25;2.83;;;1.95;;
67981;SDS011;64109;52.148;4.466;2023-01-29T01:36:52;4.72;;;2.40;;
67981;SDS011;64109;52.148;4.466;2023-01-29T01:39:19;3.90;;;2.10;;
67981;SDS011;64109;52.148;4.466;2023-01-29T01:41:45;3.97;;;2.00;;
67981;SDS011;64109;52.148;4.466;2023-01-29T01:46:56;4.13;;;2.38;;
67981;SDS011;64109;52.148;4.466;2023-01-29T01:49:25;4.18;;;2.22;;
67981;SDS011;64109;52.148;4.466;2023-01-29T01:51:51;5.78;;;2.28;;
67981;SDS011;64109;52.148;4.466;2023-01-29T01:54:18;3.80;;;2.67;;
67981;SDS011;64109;52.148;4.466;2023-01-29T01:56:48;5.38;;;2.08;;
67981;SDS011;64109;52.148;4.466;2023-01-29T01:59:16;3.72;;;2.00;;
67981;SDS011;64109;52.148;4.466;2023-01-29T02:01:43;3.03;;;1.98;;
67981;SDS011;64109;52.148;4.466;2023-01-29T02:04:14;3.80;;;1.75;;
67981;SDS011;64109;52.148;4.466;2023-01-29T02:07:00;3.40;;;2.22;;
67981;SDS011;64109;52.148;4.466;2023-01-29T02:09:49;5.43;;;2.60;;
67981;SDS011;64109;52.148;4.466;2023-01-29T02:12:16;5.22;;;3.20;;
67981;SDS011;64109;52.148;4.466;2023-01-29T02:14:43;4.82;;;3.40;;
67981;SDS011;64109;52.148;4.466;2023-01-29T02:17:10;3.17;;;2.05;;
67981;SDS011;64109;52.148;4.466;2023-01-29T02:22:45;3.40;;;2.22;;
67981;SDS011;64109;52.148;4.466;2023-01-29T02:25:05;4.55;;;2.50;;
67981;SDS011;64109;52.148;4.466;2023-01-29T02:30:12;4.03;;;2.17;;
67981;SDS011;64109;52.148;4.466;2023-01-29T02:40:25;4.18;;;2.20;;
67981;SDS011;64109;52.148;4.466;2023-01-29T02:47:58;4.55;;;2.13;;
67981;SDS011;64109;52.148;4.466;2023-01-29T02:50:36;4.50;;;2.50;;
67981;SDS011;64109;52.148;4.466;2023-01-29T02:55:52;4.80;;;2.30;;
67981;SDS011;64109;52.148;4.466;2023-01-29T02:58:18;4.22;;;2.47;;
67981;SDS011;64109;52.148;4.466;2023-01-29T03:00:46;4.65;;;2.75;;
67981;SDS011;64109;52.148;4.466;2023-01-29T03:03:26;3.63;;;2.03;;
67981;SDS011;64109;52.148;4.466;2023-01-29T03:05:55;4.70;;;2.38;;
67981;SDS011;64109;52.148;4.466;2023-01-29T03:08:27;4.45;;;2.55;;
67981;SDS011;64109;52.148;4.466;2023-01-29T03:11:01;3.85;;;2.38;;
67981;SDS011;64109;52.148;4.466;2023-01-29T03:16:05;4.05;;;2.40;;
67981;SDS011;64109;52.148;4.466;2023-01-29T03:18:34;3.88;;;2.22;;
67981;SDS011;64109;52.148;4.466;2023-01-29T03:21:06;5.47;;;2.58;;
67981;SDS011;64109;52.148;4.466;2023-01-29T03:23:54;5.35;;;3.38;;
67981;SDS011;64109;52.148;4.466;2023-01-29T03:26:39;4.43;;;2.28;;
67981;SDS011;64109;52.148;4.466;2023-01-29T03:29:24;3.83;;;2.50;;
67981;SDS011;64109;52.148;4.466;2023-01-29T03:32:09;4.88;;;2.65;;
67981;SDS011;64109;52.148;4.466;2023-01-29T03:34:40;5.22;;;3.13;;
67981;SDS011;64109;52.148;4.466;2023-01-29T03:37:13;4.68;;;3.22;;
67981;SDS011;64109;52.148;4.466;2023-01-29T03:39:40;5.45;;;3.15;;
67981;SDS011;64109;52.148;4.466;2023-01-29T03:47:11;5.53;;;2.63;;
67981;SDS011;64109;52.148;4.466;2023-01-29T03:52:12;5.22;;;3.20;;
67981;SDS011;64109;52.148;4.466;2023-01-29T03:57:23;3.85;;;2.78;;
67981;SDS011;64109;52.148;4.466;2023-01-29T04:00:03;4.68;;;3.00;;
67981;SDS011;64109;52.148;4.466;2023-01-29T04:02:36;5.25;;;2.80;;
67981;SDS011;64109;52.148;4.466;2023-01-29T04:05:08;4.43;;;2.70;;
67981;SDS011;64109;52.148;4.466;2023-01-29T04:07:36;3.90;;;2.58;;
67981;SDS011;64109;52.148;4.466;2023-01-29T04:10:06;4.60;;;3.00;;
67981;SDS011;64109;52.148;4.466;2023-01-29T04:12:38;4.78;;;2.92;;
67981;SDS011;64109;52.148;4.466;2023-01-29T04:15:06;4.13;;;2.78;;
67981;SDS011;64109;52.148;4.466;2023-01-29T04:17:36;4.03;;;2.58;;
67981;SDS011;64109;52.148;4.466;2023-01-29T04:22:33;5.13;;;3.00;;
67981;SDS011;64109;52.148;4.466;2023-01-29T04:24:59;5.50;;;2.55;;
67981;SDS011;64109;52.148;4.466;2023-01-29T04:30:11;5.10;;;3.67;;
67981;SDS011;64109;52.148;4.466;2023-01-29T04:32:49;4.97;;;3.00;;
67981;SDS011;64109;52.148;4.466;2023-01-29T04:37:55;4.65;;;2.72;;
67981;SDS011;64109;52.148;4.466;2023-01-29T04:40:47;4.55;;;2.45;;
67981;SDS011;64109;52.148;4.466;2023-01-29T04:43:20;6.25;;;3.67;;
67981;SDS011;64109;52.148;4.466;2023-01-29T04:48:42;4.38;;;2.67;;
67981;SDS011;64109;52.148;4.466;2023-01-29T04:56:47;4.85;;;2.78;;
67981;SDS011;64109;52.148;4.466;2023-01-29T04:59:18;5.35;;;2.53;;
67981;SDS011;64109;52.148;4.466;2023-01-29T05:01:44;4.35;;;2.10;;
67981;SDS011;64109;52.148;4.466;2023-01-29T05:04:13;4.35;;;2.72;;
67981;SDS011;64109;52.148;4.466;2023-01-29T05:06:39;4.35;;;2.53;;
67981;SDS011;64109;52.148;4.466;2023-01-29T05:09:06;4.25;;;2.60;;
67981;SDS011;64109;52.148;4.466;2023-01-29T05:11:33;6.57;;;3.42;;
67981;SDS011;64109;52.148;4.466;2023-01-29T05:14:01;4.05;;;2.33;;
67981;SDS011;64109;52.148;4.466;2023-01-29T05:16:29;4.15;;;3.33;;
67981;SDS011;64109;52.148;4.466;2023-01-29T05:19:05;3.72;;;2.80;;
67981;SDS011;64109;52.148;4.466;2023-01-29T05:21:31;4.10;;;2.45;;
67981;SDS011;64109;52.148;4.466;2023-01-29T05:24:11;4.20;;;2.80;;
67981;SDS011;64109;52.148;4.466;2023-01-29T05:26:38;4.30;;;2.60;;
67981;SDS011;64109;52.148;4.466;2023-01-29T05:29:23;4.22;;;2.67;;
67981;SDS011;64109;52.148;4.466;2023-01-29T05:31:49;3.78;;;2.65;;
67981;SDS011;64109;52.148;4.466;2023-01-29T05:34:15;4.13;;;2.60;;
67981;SDS011;64109;52.148;4.466;2023-01-29T05:36:41;3.55;;;2.42;;
67981;SDS011;64109;52.148;4.466;2023-01-29T05:39:07;5.70;;;2.90;;
67981;SDS011;64109;52.148;4.466;2023-01-29T05:41:33;4.95;;;2.28;;
67981;SDS011;64109;52.148;4.466;2023-01-29T05:43:59;4.07;;;2.30;;
67981;SDS011;64109;52.148;4.466;2023-01-29T05:46:25;5.03;;;2.60;;
67981;SDS011;64109;52.148;4.466;2023-01-29T05:48:51;5.38;;;2.53;;
67981;SDS011;64109;52.148;4.466;2023-01-29T05:51:17;3.78;;;2.22;;
67981;SDS011;64109;52.148;4.466;2023-01-29T05:53:43;4.10;;;2.60;;
67981;SDS011;64109;52.148;4.466;2023-01-29T05:56:09;4.05;;;2.67;;
67981;SDS011;64109;52.148;4.466;2023-01-29T05:58:35;3.90;;;2.38;;
67981;SDS011;64109;52.148;4.466;2023-01-29T06:01:08;3.25;;;2.10;;
67981;SDS011;64109;52.148;4.466;2023-01-29T06:03:35;3.58;;;2.47;;
67981;SDS011;64109;52.148;4.466;2023-01-29T06:06:01;3.85;;;2.25;;
67981;SDS011;64109;52.148;4.466;2023-01-29T06:08:27;3.20;;;2.20;;
67981;SDS011;64109;52.148;4.466;2023-01-29T06:10:53;4.13;;;2.30;;
67981;SDS011;64109;52.148;4.466;2023-01-29T06:13:19;5.60;;;2.78;;
67981;SDS011;64109;52.148;4.466;2023-01-29T06:15:44;5.57;;;2.75;;
67981;SDS011;64109;52.148;4.466;2023-01-29T06:18:10;4.13;;;2.45;;
67981;SDS011;64109;52.148;4.466;2023-01-29T06:20:36;3.75;;;2.30;;
67981;SDS011;64109;52.148;4.466;2023-01-29T06:23:02;4.03;;;2.78;;
67981;SDS011;64109;52.148;4.466;2023-01-29T06:25:28;5.88;;;2.50;;
67981;SDS011;64109;52.148;4.466;2023-01-29T06:27:54;3.72;;;2.38;;
67981;SDS011;64109;52.148;4.466;2023-01-29T06:30:20;3.70;;;2.63;;
67981;SDS011;64109;52.148;4.466;2023-01-29T06:32:46;4.70;;;2.78;;
67981;SDS011;64109;52.148;4.466;2023-01-29T06:35:12;5.20;;;2.60;;
67981;SDS011;64109;52.148;4.466;2023-01-29T06:37:38;5.72;;;3.50;;
67981;SDS011;64109;52.148;4.466;2023-01-29T06:40:04;4.97;;;2.75;;
67981;SDS011;64109;52.148;4.466;2023-01-29T06:42:31;5.28;;;2.58;;
67981;SDS011;64109;52.148;4.466;2023-01-29T06:44:57;4.32;;;2.72;;
67981;SDS011;64109;52.148;4.466;2023-01-29T06:47:23;5.18;;;2.60;;
67981;SDS011;64109;52.148;4.466;2023-01-29T06:49:49;5.07;;;2.45;;
67981;SDS011;64109;52.148;4.466;2023-01-29T06:52:15;3.97;;;2.70;;
67981;SDS011;64109;52.148;4.466;2023-01-29T06:54:41;3.97;;;2.53;;
67981;SDS011;64109;52.148;4.466;2023-01-29T06:57:07;5.07;;;2.63;;
67981;SDS011;64109;52.148;4.466;2023-01-29T06:59:33;4.70;;;2.40;;
67981;SDS011;64109;52.148;4.466;2023-01-29T07:01:59;3.40;;;2.30;;
67981;SDS011;64109;52.148;4.466;2023-01-29T07:04:25;4.32;;;2.65;;
67981;SDS011;64109;52.148;4.466;2023-01-29T07:06:51;4.60;;;2.92;;
67981;SDS011;64109;52.148;4.466;2023-01-29T07:09:17;6.45;;;4.13;;
67981;SDS011;64109;52.148;4.466;2023-01-29T07:11:43;4.28;;;3.15;;
67981;SDS011;64109;52.148;4.466;2023-01-29T07:14:09;4.72;;;3.03;;
67981;SDS011;64109;52.148;4.466;2023-01-29T07:16:35;5.60;;;3.25;;
67981;SDS011;64109;52.148;4.466;2023-01-29T07:19:01;4.97;;;3.30;;
67981;SDS011;64109;52.148;4.466;2023-01-29T07:21:27;5.72;;;2.90;;
67981;SDS011;64109;52.148;4.466;2023-01-29T07:23:53;5.30;;;3.40;;
67981;SDS011;64109;52.148;4.466;2023-01-29T07:26:19;6.30;;;3.00;;
67981;SDS011;64109;52.148;4.466;2023-01-29T07:28:45;5.43;;;3.15;;
67981;SDS011;64109;52.148;4.466;2023-01-29T07:31:12;6.10;;;3.05;;
67981;SDS011;64109;52.148;4.466;2023-01-29T07:33:39;4.22;;;2.80;;
67981;SDS011;64109;52.148;4.466;2023-01-29T07:36:08;5.53;;;2.72;;
67981;SDS011;64109;52.148;4.466;2023-01-29T07:38:35;7.07;;;2.70;;
67981;SDS011;64109;52.148;4.466;2023-01-29T07:41:00;5.18;;;2.63;;
67981;SDS011;64109;52.148;4.466;2023-01-29T07:43:26;5.03;;;2.60;;
67981;SDS011;64109;52.148;4.466;2023-01-29T07:45:52;5.20;;;2.50;;
67981;SDS011;64109;52.148;4.466;2023-01-29T07:48:18;6.32;;;3.00;;
67981;SDS011;64109;52.148;4.466;2023-01-29T07:50:44;4.82;;;3.08;;
67981;SDS011;64109;52.148;4.466;2023-01-29T07:53:11;4.90;;;3.00;;
67981;SDS011;64109;52.148;4.466;2023-01-29T07:55:38;6.72;;;3.08;;
67981;SDS011;64109;52.148;4.466;2023-01-29T07:58:04;6.25;;;3.05;;
67981;SDS011;64109;52.148;4.466;2023-01-29T08:00:30;4.20;;;2.85;;
67981;SDS011;64109;52.148;4.466;2023-01-29T08:03:06;6.88;;;3.83;;
67981;SDS011;64109;52.148;4.466;2023-01-29T08:05:32;6.65;;;4.32;;
67981;SDS011;64109;52.148;4.466;2023-01-29T08:07:58;7.80;;;4.70;;
67981;SDS011;64109;52.148;4.466;2023-01-29T08:10:24;7.50;;;4.57;;
67981;SDS011;64109;52.148;4.466;2023-01-29T08:12:57;7.72;;;4.57;;
67981;SDS011;64109;52.148;4.466;2023-01-29T08:15:23;7.70;;;5.22;;
67981;SDS011;64109;52.148;4.466;2023-01-29T08:17:50;8.20;;;5.15;;
67981;SDS011;64109;52.148;4.466;2023-01-29T08:20:16;6.70;;;4.32;;
67981;SDS011;64109;52.148;4.466;2023-01-29T08:22:42;10.63;;;4.63;;
67981;SDS011;64109;52.148;4.466;2023-01-29T08:25:08;8.05;;;6.07;;
67981;SDS011;64109;52.148;4.466;2023-01-29T08:27:34;7.93;;;5.20;;
67981;SDS011;64109;52.148;4.466;2023-01-29T08:30:00;8.40;;;4.85;;
67981;SDS011;64109;52.148;4.466;2023-01-29T08:32:26;6.65;;;4.88;;
67981;SDS011;64109;52.148;4.466;2023-01-29T08:34:52;8.40;;;5.40;;
67981;SDS011;64109;52.148;4.466;2023-01-29T08:37:18;7.75;;;5.15;;
67981;SDS011;64109;52.148;4.466;2023-01-29T08:39:44;8.88;;;6.65;;
67981;SDS011;64109;52.148;4.466;2023-01-29T08:42:10;7.50;;;5.25;;
67981;SDS011;64109;52.148;4.466;2023-01-29T08:44:36;7.80;;;5.35;;
67981;SDS011;64109;52.148;4.466;2023-01-29T08:47:02;9.40;;;5.43;;
67981;SDS011;64109;52.148;4.466;2023-01-29T08:49:28;8.60;;;5.10;;
67981;SDS011;64109;52.148;4.466;2023-01-29T08:51:54;9.15;;;4.95;;
67981;SDS011;64109;52.148;4.466;2023-01-29T08:54:21;7.47;;;5.45;;
67981;SDS011;64109;52.148;4.466;2023-01-29T08:56:47;9.25;;;5.30;;
67981;SDS011;64109;52.148;4.466;2023-01-29T08:59:13;6.68;;;4.60;;
67981;SDS011;64109;52.148;4.466;2023-01-29T09:01:39;7.35;;;6.20;;
67981;SDS011;64109;52.148;4.466;2023-01-29T09:04:05;8.43;;;5.50;;
67981;SDS011;64109;52.148;4.466;2023-01-29T09:06:32;7.35;;;4.65;;
67981;SDS011;64109;52.148;4.466;2023-01-29T09:08:58;6.75;;;4.65;;
67981;SDS011;64109;52.148;4.466;2023-01-29T09:11:24;7.07;;;5.03;;
67981;SDS011;64109;52.148;4.466;2023-01-29T09:13:50;8.15;;;4.82;;
67981;SDS011;64109;52.148;4.466;2023-01-29T09:16:16;7.30;;;4.85;;
67981;SDS011;64109;52.148;4.466;2023-01-29T09:18:42;5.97;;;4.70;;
67981;SDS011;64109;52.148;4.466;2023-01-29T09:21:08;25.73;;;6.57;;
67981;SDS011;64109;52.148;4.466;2023-01-29T09:23:34;11.60;;;4.63;;
67981;SDS011;64109;52.148;4.466;2023-01-29T09:26:00;8.90;;;4.25;;
67981;SDS011;64109;52.148;4.466;2023-01-29T09:28:26;10.82;;;5.18;;
67981;SDS011;64109;52.148;4.466;2023-01-29T09:30:52;8.57;;;6.40;;
67981;SDS011;64109;52.148;4.466;2023-01-29T09:33:18;6.32;;;4.07;;
67981;SDS011;64109;52.148;4.466;2023-01-29T09:35:44;7.38;;;5.10;;
67981;SDS011;64109;52.148;4.466;2023-01-29T09:38:11;9.82;;;4.60;;
67981;SDS011;64109;52.148;4.466;2023-01-29T09:40:44;8.07;;;4.53;;
67981;SDS011;64109;52.148;4.466;2023-01-29T09:43:14;8.30;;;4.32;;
67981;SDS011;64109;52.148;4.466;2023-01-29T09:45:44;9.55;;;5.10;;
67981;SDS011;64109;52.148;4.466;2023-01-29T09:48:14;11.30;;;4.65;;
67981;SDS011;64109;52.148;4.466;2023-01-29T09:50:41;12.45;;;4.80;;
67981;SDS011;64109;52.148;4.466;2023-01-29T09:53:23;7.45;;;4.03;;
67981;SDS011;64109;52.148;4.466;2023-01-29T09:55:52;7.90;;;4.05;;
67981;SDS011;64109;52.148;4.466;2023-01-29T10:05:55;11.82;;;4.53;;
67981;SDS011;64109;52.148;4.466;2023-01-29T10:13:48;9.73;;;4.15;;
67981;SDS011;64109;52.148;4.466;2023-01-29T10:16:20;12.57;;;4.40;;
67981;SDS011;64109;52.148;4.466;2023-01-29T10:19:02;9.18;;;4.00;;
67981;SDS011;64109;52.148;4.466;2023-01-29T10:21:43;10.55;;;4.03;;
67981;SDS011;64109;52.148;4.466;2023-01-29T10:26:37;6.13;;;3.70;;
67981;SDS011;64109;52.148;4.466;2023-01-29T10:29:04;8.50;;;4.32;;
67981;SDS011;64109;52.148;4.466;2023-01-29T10:31:32;8.68;;;4.05;;
67981;SDS011;64109;52.148;4.466;2023-01-29T10:34:05;6.78;;;4.03;;
67981;SDS011;64109;52.148;4.466;2023-01-29T10:36:44;8.75;;;4.15;;
67981;SDS011;64109;52.148;4.466;2023-01-29T10:41:47;9.30;;;5.18;;
67981;SDS011;64109;52.148;4.466;2023-01-29T10:44:16;7.72;;;3.95;;
67981;SDS011;64109;52.148;4.466;2023-01-29T10:52:08;7.07;;;3.65;;
67981;SDS011;64109;52.148;4.466;2023-01-29T11:00:07;6.95;;;3.58;;
67981;SDS011;64109;52.148;4.466;2023-01-29T11:02:41;6.25;;;3.80;;
67981;SDS011;64109;52.148;4.466;2023-01-29T11:05:17;6.22;;;3.65;;
67981;SDS011;64109;52.148;4.466;2023-01-29T11:07:44;6.47;;;3.85;;
67981;SDS011;64109;52.148;4.466;2023-01-29T11:10:12;8.63;;;4.40;;
67981;SDS011;64109;52.148;4.466;2023-01-29T11:12:42;9.90;;;3.42;;
67981;SDS011;64109;52.148;4.466;2023-01-29T11:17:38;7.38;;;3.67;;
67981;SDS011;64109;52.148;4.466;2023-01-29T11:20:05;6.20;;;3.58;;
67981;SDS011;64109;52.148;4.466;2023-01-29T11:22:31;5.90;;;3.60;;
67981;SDS011;64109;52.148;4.466;2023-01-29T11:25:08;5.07;;;3.35;;
67981;SDS011;64109;52.148;4.466;2023-01-29T11:27:38;7.00;;;3.38;;
67981;SDS011;64109;52.148;4.466;2023-01-29T11:30:09;5.85;;;3.50;;
67981;SDS011;64109;52.148;4.466;2023-01-29T11:32:39;5.88;;;3.47;;
67981;SDS011;64109;52.148;4.466;2023-01-29T11:37:41;5.18;;;3.72;;
67981;SDS011;64109;52.148;4.466;2023-01-29T11:42:43;7.15;;;3.20;;
67981;SDS011;64109;52.148;4.466;2023-01-29T11:45:23;5.30;;;3.33;;
67981;SDS011;64109;52.148;4.466;2023-01-29T11:47:53;5.30;;;3.10;;
67981;SDS011;64109;52.148;4.466;2023-01-29T11:50:23;5.10;;;3.08;;
67981;SDS011;64109;52.148;4.466;2023-01-29T11:52:50;6.38;;;3.67;;
67981;SDS011;64109;52.148;4.466;2023-01-29T11:55:17;5.78;;;3.40;;
67981;SDS011;64109;52.148;4.466;2023-01-29T11:57:50;5.53;;;3.45;;
67981;SDS011;64109;52.148;4.466;2023-01-29T12:00:25;5.85;;;3.70;;
67981;SDS011;64109;52.148;4.466;2023-01-29T12:05:24;5.72;;;3.60;;
67981;SDS011;64109;52.148;4.466;2023-01-29T12:07:51;5.63;;;3.22;;
67981;SDS011;64109;52.148;4.466;2023-01-29T12:10:37;7.30;;;3.97;;
67981;SDS011;64109;52.148;4.466;2023-01-29T12:15:40;4.65;;;3.22;;
67981;SDS011;64109;52.148;4.466;2023-01-29T12:20:34;6.53;;;3.33;;
67981;SDS011;64109;52.148;4.466;2023-01-29T12:23:03;5.05;;;3.13;;
67981;SDS011;64109;52.148;4.466;2023-01-29T12:30:39;5.25;;;3.25;;
67981;SDS011;64109;52.148;4.466;2023-01-29T12:33:22;5.25;;;3.40;;
67981;SDS011;64109;52.148;4.466;2023-01-29T12:36:01;6.47;;;3.42;;
67981;SDS011;64109;52.148;4.466;2023-01-29T12:38:30;5.50;;;3.35;;
67981;SDS011;64109;52.148;4.466;2023-01-29T12:40:57;5.82;;;3.15;;
67981;SDS011;64109;52.148;4.466;2023-01-29T12:43:32;6.03;;;4.07;;
67981;SDS011;64109;52.148;4.466;2023-01-29T12:46:00;4.90;;;3.28;;
67981;SDS011;64109;52.148;4.466;2023-01-29T12:48:31;5.32;;;3.20;;
67981;SDS011;64109;52.148;4.466;2023-01-29T12:51:02;5.50;;;4.10;;
67981;SDS011;64109;52.148;4.466;2023-01-29T12:56:02;6.40;;;4.35;;
67981;SDS011;64109;52.148;4.466;2023-01-29T12:58:32;5.88;;;4.43;;
67981;SDS011;64109;52.148;4.466;2023-01-29T13:01:05;4.68;;;2.75;;
67981;SDS011;64109;52.148;4.466;2023-01-29T13:03:43;4.47;;;2.97;;
67981;SDS011;64109;52.148;4.466;2023-01-29T13:08:37;5.95;;;2.70;;
67981;SDS011;64109;52.148;4.466;2023-01-29T13:11:10;6.38;;;3.60;;
67981;SDS011;64109;52.148;4.466;2023-01-29T13:13:40;5.60;;;3.45;;
67981;SDS011;64109;52.148;4.466;2023-01-29T13:16:09;4.93;;;2.92;;
67981;SDS011;64109;52.148;4.466;2023-01-29T13:21:01;5.03;;;4.10;;
67981;SDS011;64109;52.148;4.466;2023-01-29T13:23:38;5.60;;;3.20;;
67981;SDS011;64109;52.148;4.466;2023-01-29T13:26:05;6.38;;;2.78;;
67981;SDS011;64109;52.148;4.466;2023-01-29T13:28:31;5.60;;;3.08;;
67981;SDS011;64109;52.148;4.466;2023-01-29T13:33:41;6.13;;;2.85;;
67981;SDS011;64109;52.148;4.466;2023-01-29T13:36:15;9.55;;;3.60;;
67981;SDS011;64109;52.148;4.466;2023-01-29T13:38:43;4.57;;;2.97;;
67981;SDS011;64109;52.148;4.466;2023-01-29T13:41:09;5.38;;;3.03;;
67981;SDS011;64109;52.148;4.466;2023-01-29T13:43:36;5.05;;;3.35;;
67981;SDS011;64109;52.148;4.466;2023-01-29T13:46:09;5.38;;;2.83;;
67981;SDS011;64109;52.148;4.466;2023-01-29T13:48:40;3.67;;;2.40;;
67981;SDS011;64109;52.148;4.466;2023-01-29T13:51:08;4.13;;;2.80;;
67981;SDS011;64109;52.148;4.466;2023-01-29T13:53:39;5.30;;;2.80;;
67981;SDS011;64109;52.148;4.466;2023-01-29T13:58:51;5.03;;;3.22;;
67981;SDS011;64109;52.148;4.466;2023-01-29T14:01:18;5.55;;;2.97;;
67981;SDS011;64109;52.148;4.466;2023-01-29T14:04:14;5.20;;;2.70;;
67981;SDS011;64109;52.148;4.466;2023-01-29T14:11:56;7.70;;;3.00;;
67981;SDS011;64109;52.148;4.466;2023-01-29T14:17:07;4.53;;;2.63;;
67981;SDS011;64109;52.148;4.466;2023-01-29T14:19:34;4.25;;;2.65;;
67981;SDS011;64109;52.148;4.466;2023-01-29T14:22:00;5.20;;;2.33;;
67981;SDS011;64109;52.148;4.466;2023-01-29T14:24:27;3.33;;;2.33;;
67981;SDS011;64109;52.148;4.466;2023-01-29T14:29:24;3.97;;;2.45;;
67981;SDS011;64109;52.148;4.466;2023-01-29T14:31:53;4.45;;;2.38;;
67981;SDS011;64109;52.148;4.466;2023-01-29T14:34:25;3.75;;;2.40;;
67981;SDS011;64109;52.148;4.466;2023-01-29T14:36:52;3.60;;;2.20;;
67981;SDS011;64109;52.148;4.466;2023-01-29T14:39:24;3.63;;;2.03;;
67981;SDS011;64109;52.148;4.466;2023-01-29T14:41:52;3.55;;;1.98;;
67981;SDS011;64109;52.148;4.466;2023-01-29T14:47:03;4.75;;;2.30;;
67981;SDS011;64109;52.148;4.466;2023-01-29T14:52:14;3.67;;;2.97;;
67981;SDS011;64109;52.148;4.466;2023-01-29T14:54:41;3.53;;;2.00;;
67981;SDS011;64109;52.148;4.466;2023-01-29T14:57:10;3.10;;;2.05;;
67981;SDS011;64109;52.148;4.466;2023-01-29T14:59:41;3.95;;;2.00;;
67981;SDS011;64109;52.148;4.466;2023-01-29T15:02:15;2.70;;;1.77;;
67981;SDS011;64109;52.148;4.466;2023-01-29T15:04:50;3.60;;;2.03;;
67981;SDS011;64109;52.148;4.466;2023-01-29T15:07:21;2.88;;;1.92;;
67981;SDS011;64109;52.148;4.466;2023-01-29T15:10:00;2.85;;;1.90;;
67981;SDS011;64109;52.148;4.466;2023-01-29T15:15:15;4.03;;;1.92;;
67981;SDS011;64109;52.148;4.466;2023-01-29T15:20:24;2.63;;;1.77;;
67981;SDS011;64109;52.148;4.466;2023-01-29T15:22:51;3.42;;;2.50;;
67981;SDS011;64109;52.148;4.466;2023-01-29T15:25:17;2.75;;;1.80;;
67981;SDS011;64109;52.148;4.466;2023-01-29T15:27:45;2.97;;;1.77;;
67981;SDS011;64109;52.148;4.466;2023-01-29T15:30:19;2.90;;;1.85;;
67981;SDS011;64109;52.148;4.466;2023-01-29T15:32:46;3.03;;;1.80;;
67981;SDS011;64109;52.148;4.466;2023-01-29T15:35:27;2.55;;;1.65;;
67981;SDS011;64109;52.148;4.466;2023-01-29T15:37:57;3.35;;;1.90;;
67981;SDS011;64109;52.148;4.466;2023-01-29T15:40:23;4.18;;;2.15;;
67981;SDS011;64109;52.148;4.466;2023-01-29T15:42:49;3.08;;;1.90;;
67981;SDS011;64109;52.148;4.466;2023-01-29T15:47:51;2.67;;;1.80;;
67981;SDS011;64109;52.148;4.466;2023-01-29T15:50:19;3.05;;;2.75;;
67981;SDS011;64109;52.148;4.466;2023-01-29T15:52:50;2.80;;;1.70;;
67981;SDS011;64109;52.148;4.466;2023-01-29T15:55:16;4.38;;;1.45;;
67981;SDS011;64109;52.148;4.466;2023-01-29T15:57:44;3.65;;;1.50;;
67981;SDS011;64109;52.148;4.466;2023-01-29T16:00:23;3.17;;;1.77;;
67981;SDS011;64109;52.148;4.466;2023-01-29T16:02:51;2.75;;;1.80;;
67981;SDS011;64109;52.148;4.466;2023-01-29T16:05:18;3.85;;;1.95;;
67981;SDS011;64109;52.148;4.466;2023-01-29T16:07:46;3.33;;;1.98;;
67981;SDS011;64109;52.148;4.466;2023-01-29T16:10:13;4.28;;;1.92;;
67981;SDS011;64109;52.148;4.466;2023-01-29T16:12:41;3.70;;;1.88;;
67981;SDS011;64109;52.148;4.466;2023-01-29T16:15:09;2.80;;;2.00;;
67981;SDS011;64109;52.148;4.466;2023-01-29T16:17:39;2.92;;;1.70;;
67981;SDS011;64109;52.148;4.466;2023-01-29T16:20:28;2.50;;;1.77;;
67981;SDS011;64109;52.148;4.466;2023-01-29T16:22:52;2.72;;;1.60;;
67981;SDS011;64109;52.148;4.466;2023-01-29T16:25:18;2.53;;;1.65;;
67981;SDS011;64109;52.148;4.466;2023-01-29T16:27:44;2.92;;;1.80;;
67981;SDS011;64109;52.148;4.466;2023-01-29T16:30:13;3.10;;;1.88;;
67981;SDS011;64109;52.148;4.466;2023-01-29T16:32:40;3.03;;;1.90;;
67981;SDS011;64109;52.148;4.466;2023-01-29T16:35:11;3.00;;;1.70;;
67981;SDS011;64109;52.148;4.466;2023-01-29T16:37:38;3.08;;;1.50;;
67981;SDS011;64109;52.148;4.466;2023-01-29T16:40:15;2.67;;;1.52;;
67981;SDS011;64109;52.148;4.466;2023-01-29T16:42:41;2.53;;;1.80;;
67981;SDS011;64109;52.148;4.466;2023-01-29T16:45:26;2.70;;;1.77;;
67981;SDS011;64109;52.148;4.466;2023-01-29T16:48:23;3.38;;;1.60;;
67981;SDS011;64109;52.148;4.466;2023-01-29T16:50:44;2.75;;;1.80;;
67981;SDS011;64109;52.148;4.466;2023-01-29T16:53:17;2.95;;;1.88;;
67981;SDS011;64109;52.148;4.466;2023-01-29T16:55:45;3.00;;;1.83;;
67981;SDS011;64109;52.148;4.466;2023-01-29T16:58:20;3.22;;;2.03;;
67981;SDS011;64109;52.148;4.466;2023-01-29T17:01:04;2.42;;;1.60;;
67981;SDS011;64109;52.148;4.466;2023-01-29T17:03:32;3.30;;;2.58;;
67981;SDS011;64109;52.148;4.466;2023-01-29T17:06:07;2.33;;;1.48;;
67981;SDS011;64109;52.148;4.466;2023-01-29T17:08:33;2.55;;;1.60;;
67981;SDS011;64109;52.148;4.466;2023-01-29T17:10:59;2.63;;;1.95;;
67981;SDS011;64109;52.148;4.466;2023-01-29T17:13:36;3.03;;;1.45;;
67981;SDS011;64109;52.148;4.466;2023-01-29T17:18:44;2.40;;;1.45;;
67981;SDS011;64109;52.148;4.466;2023-01-29T17:21:10;2.92;;;1.70;;